Time,TemperatureF,DewpointF,PressureIn,WindDirection,WindDirectionDegrees,WindSpeedMPH,WindSpeedGustMPH,Humidity,HourlyPrecipIn,Conditions,Clouds,dailyrainin,SolarRadiationWatts/m^2,SoftwareType,DateUTC
2016-02-13 00:00:00,25.3,22.5,30.33,East,101,4.0,12.0,89,0.00,,CLR,0.00,0.00,VWS V15.00,2016-02-13 07:00:00,
2016-02-13 00:05:00,25.5,22.7,30.33,East,98,10.0,10.0,89,0.00,,CLR,0.00,0.00,VWS V15.00,2016-02-13 07:05:00,
2016-02-13 00:10:00,25.6,22.8,30.33,ESE,110,7.0,10.0,89,0.00,,CLR,0.00,0.00,VWS V15.00,2016-02-13 07:10:00,
2016-02-13 00:15:00,25.7,22.9,30.33,East,98,9.0,10.0,89,0.00,,CLR,0.00,0.00,VWS V15.00,2016-02-13 07:15:00,
2016-02-13 00:19:00,25.7,22.9,30.33,East,97,9.0,11.0,89,0.00,,CLR,0.00,0.00,VWS V15.00,2016-02-13 07:19:00,
2016-02-13 00:25:00,25.9,23.1,30.32,ESE,116,6.0,10.0,89,0.00,,CLR,0.00,0.00,VWS V15.00,2016-02-13 07:25:00,
2016-02-13 00:30:00,26.0,23.2,30.32,SE,140,12.0,13.0,89,0.00,,CLR,0.00,0.00,VWS V15.00,2016-02-13 07:30:00,
2016-02-13 00:35:00,26.0,23.2,30.31,SE,132,7.0,12.0,89,0.00,,CLR,0.00,0.00,VWS V15.00,2016-02-13 07:35:00,
2016-02-13 00:40:00,26.1,23.0,30.31,SE,125,12.0,14.0,88,0.00,,CLR,0.00,0.00,VWS V15.00,2016-02-13 07:40:00,
2016-02-13 00:45:00,26.2,23.4,30.30,ESE,122,11.0,16.0,89,0.00,,CLR,0.00,0.00,VWS V15.00,2016-02-13 07:45:00,
2016-02-13 00:50:00,26.2,23.4,30.30,SE,126,8.0,13.0,89,0.00,,CLR,0.00,0.00,VWS V15.00,2016-02-13 07:50:00,
2016-02-13 00:55:00,26.1,23.0,30.29,ESE,123,9.0,15.0,88,0.00,,CLR,0.00,0.00,VWS V15.00,2016-02-13 07:55:00,
2016-02-13 00:57:00,26.1,23.0,30.29,SE,134,9.0,9.0,88,0.00,,CLR,0.00,0.00,VWS V15.00,2016-02-13 07:57:00,
2016-02-13 01:00:00,26.3,23.2,30.30,East,90,9.0,13.0,88,0.00,,CLR,0.00,0.00,VWS V15.00,2016-02-13 08:00:00,
2016-02-13 01:02:00,26.2,23.1,30.30,SE,126,7.0,13.0,88,0.00,,CLR,0.00,0.00,VWS V15.00,2016-02-13 08:02:00,
2016-02-13 01:05:00,26.5,23.4,30.30,ESE,111,7.0,14.0,88,0.00,,CLR,0.00,0.00,VWS V15.00,2016-02-13 08:05:00,
2016-02-13 01:07:00,26.4,23.3,30.30,East,92,5.0,13.0,88,0.00,,CLR,0.00,0.00,VWS V15.00,2016-02-13 08:07:00,
2016-02-13 01:10:00,26.6,23.5,30.29,ESE,108,8.0,13.0,88,0.00,,CLR,0.00,0.00,VWS V15.00,2016-02-13 08:10:00,
2016-02-13 01:15:00,26.6,23.5,30.29,East,94,5.0,10.0,88,0.00,,CLR,0.00,0.00,VWS V15.00,2016-02-13 08:15:00,
2016-02-13 01:17:00,26.6,23.5,30.29,ESE,119,2.0,10.0,88,0.00,,CLR,0.00,0.00,VWS V15.00,2016-02-13 08:17:00,
2016-02-13 01:25:00,26.7,23.6,30.28,ESE,121,12.0,13.0,88,0.00,,CLR,0.00,0.00,VWS V15.00,2016-02-13 08:25:00,
2016-02-13 01:30:00,26.7,23.6,30.28,ESE,118,7.0,14.0,88,0.00,,CLR,0.00,0.00,VWS V15.00,2016-02-13 08:30:00,
2016-02-13 01:31:00,26.7,23.6,30.28,East,96,4.0,14.0,88,0.00,,CLR,0.00,0.00,VWS V15.00,2016-02-13 08:31:00,
2016-02-13 01:35:00,26.8,23.7,30.28,ESE,115,3.0,12.0,88,0.00,,CLR,0.00,0.00,VWS V15.00,2016-02-13 08:35:00,
2016-02-13 01:36:00,26.8,23.7,30.28,East,87,3.0,12.0,88,0.00,,CLR,0.00,0.00,VWS V15.00,2016-02-13 08:36:00,
2016-02-13 01:40:00,26.9,23.8,30.28,East,96,3.0,10.0,88,0.00,,CLR,0.00,0.00,VWS V15.00,2016-02-13 08:40:00,
2016-02-13 01:41:00,26.9,23.8,30.28,East,87,6.0,10.0,88,0.00,,CLR,0.00,0.00,VWS V15.00,2016-02-13 08:41:00,
2016-02-13 01:45:00,27.1,24.0,30.27,ESE,119,7.0,11.0,88,0.00,,CLR,0.00,0.00,VWS V15.00,2016-02-13 08:45:00,
2016-02-13 01:46:00,27.1,24.0,30.28,SE,124,8.0,11.0,88,0.00,,CLR,0.00,0.00,VWS V15.00,2016-02-13 08:46:00,
2016-02-13 01:55:00,27.2,24.1,30.27,East,95,6.0,9.0,88,0.00,,CLR,0.00,0.00,VWS V15.00,2016-02-13 08:55:00,
2016-02-13 01:56:00,27.2,24.1,30.27,East,91,5.0,5.0,88,0.00,,CLR,0.00,0.00,VWS V15.00,2016-02-13 08:56:00,
2016-02-13 02:00:00,27.4,24.3,30.27,ESE,111,4.0,9.0,88,0.00,,CLR,0.00,0.00,VWS V15.00,2016-02-13 09:00:00,
2016-02-13 02:01:00,27.3,24.2,30.27,East,98,5.0,9.0,88,0.00,,CLR,0.00,0.00,VWS V15.00,2016-02-13 09:01:00,
2016-02-13 02:05:00,27.5,24.4,30.27,SE,137,6.0,11.0,88,0.00,,CLR,0.00,0.00,VWS V15.00,2016-02-13 09:05:00,
2016-02-13 02:06:00,27.5,24.4,30.27,SE,125,5.0,11.0,88,0.00,,CLR,0.00,0.00,VWS V15.00,2016-02-13 09:06:00,
2016-02-13 02:10:00,27.6,24.5,30.26,ESE,109,6.0,11.0,88,0.00,,CLR,0.00,0.00,VWS V15.00,2016-02-13 09:10:00,
2016-02-13 02:11:00,27.6,24.5,30.26,SE,140,6.0,11.0,88,0.00,,CLR,0.00,0.00,VWS V15.00,2016-02-13 09:11:00,
2016-02-13 02:15:00,27.6,24.5,30.27,ESE,107,4.0,10.0,88,0.00,,CLR,0.00,0.00,VWS V15.00,2016-02-13 09:15:00,
2016-02-13 02:25:00,27.6,24.2,30.26,East,86,6.0,6.0,87,0.00,,CLR,0.00,0.00,VWS V15.00,2016-02-13 09:25:00,
2016-02-13 02:30:00,27.7,24.3,30.26,SE,127,6.0,10.0,87,0.00,,CLR,0.00,0.00,VWS V15.00,2016-02-13 09:30:00,
2016-02-13 02:35:00,27.7,24.3,30.26,SE,140,10.0,13.0,87,0.00,,CLR,0.00,0.00,VWS V15.00,2016-02-13 09:35:00,
2016-02-13 02:40:00,27.7,24.3,30.26,SE,130,6.0,10.0,87,0.00,,CLR,0.00,0.00,VWS V15.00,2016-02-13 09:40:00,
2016-02-13 02:45:00,27.7,24.3,30.25,ESE,112,5.0,12.0,87,0.00,,CLR,0.00,0.00,VWS V15.00,2016-02-13 09:45:00,
2016-02-13 02:50:00,27.8,24.4,30.25,SE,127,7.0,14.0,87,0.00,,CLR,0.00,0.00,VWS V15.00,2016-02-13 09:50:00,
2016-02-13 02:55:00,27.9,24.8,30.24,East,99,6.0,7.0,88,0.00,,CLR,0.00,0.00,VWS V15.00,2016-02-13 09:55:00,
2016-02-13 02:56:00,27.9,24.8,30.25,East,94,0.0,0.0,88,0.00,,CLR,0.00,0.00,VWS V15.00,2016-02-13 09:56:00,
2016-02-13 03:00:00,28.0,24.9,30.25,ESE,107,3.0,11.0,88,0.00,,CLR,0.00,0.00,VWS V15.00,2016-02-13 10:00:00,
2016-02-13 03:01:00,28.0,24.9,30.25,SE,136,6.0,11.0,88,0.00,,CLR,0.00,0.00,VWS V15.00,2016-02-13 10:01:00,
2016-02-13 03:05:00,28.1,24.7,30.24,ESE,102,4.0,10.0,87,0.00,,CLR,0.00,0.00,VWS V15.00,2016-02-13 10:05:00,
2016-02-13 03:06:00,28.1,24.7,30.25,ESE,116,8.0,9.0,87,0.00,,CLR,0.00,0.00,VWS V15.00,2016-02-13 10:06:00,
2016-02-13 03:10:00,28.2,24.8,30.24,SE,130,7.0,10.0,87,0.00,,CLR,0.00,0.00,VWS V15.00,2016-02-13 10:10:00,
2016-02-13 03:11:00,28.2,24.8,30.24,ESE,123,5.0,10.0,87,0.00,,CLR,0.00,0.00,VWS V15.00,2016-02-13 10:11:00,
2016-02-13 03:15:00,28.3,24.9,30.24,East,94,4.0,12.0,87,0.00,,CLR,0.00,0.00,VWS V15.00,2016-02-13 10:15:00,
2016-02-13 03:16:00,28.3,24.9,30.24,ESE,110,5.0,9.0,87,0.00,,CLR,0.00,0.00,VWS V15.00,2016-02-13 10:16:00,
2016-02-13 03:25:00,28.5,25.1,30.23,ESE,117,4.0,11.0,87,0.00,,CLR,0.00,0.00,VWS V15.00,2016-02-13 10:25:00,
2016-02-13 03:26:00,28.4,25.0,30.23,ESE,116,11.0,11.0,87,0.00,,CLR,0.00,0.00,VWS V15.00,2016-02-13 10:26:00,
2016-02-13 03:30:00,28.5,25.4,30.22,East,101,2.0,7.0,88,0.00,,CLR,0.00,0.00,VWS V15.00,2016-02-13 10:30:00,
2016-02-13 03:31:00,28.5,25.1,30.22,East,88,5.0,6.0,87,0.00,,CLR,0.00,0.00,VWS V15.00,2016-02-13 10:31:00,
2016-02-13 03:35:00,28.6,25.5,30.22,ESE,109,3.0,9.0,88,0.00,,CLR,0.00,0.00,VWS V15.00,2016-02-13 10:35:00,
2016-02-13 03:40:00,28.7,25.6,30.21,East,97,10.0,10.0,88,0.00,,CLR,0.00,0.00,VWS V15.00,2016-02-13 10:40:00,
2016-02-13 03:41:00,28.7,25.6,30.21,SE,130,7.0,9.0,88,0.00,,CLR,0.00,0.00,VWS V15.00,2016-02-13 10:41:00,
2016-02-13 03:45:00,28.7,25.6,30.21,ESE,122,9.0,14.0,88,0.00,,CLR,0.00,0.00,VWS V15.00,2016-02-13 10:45:00,
2016-02-13 03:46:00,28.7,25.6,30.21,SE,134,6.0,14.0,88,0.00,,CLR,0.00,0.00,VWS V15.00,2016-02-13 10:46:00,
2016-02-13 03:55:00,28.9,25.8,30.21,ESE,104,3.0,3.0,88,0.00,,CLR,0.00,0.00,VWS V15.00,2016-02-13 10:55:00,
2016-02-13 04:00:00,29.0,25.9,30.21,ESE,114,5.0,7.0,88,0.00,,CLR,0.00,0.00,VWS V15.00,2016-02-13 11:00:00,
2016-02-13 04:05:00,29.0,25.9,30.22,SE,130,4.0,6.0,88,0.00,,CLR,0.00,0.00,VWS V15.00,2016-02-13 11:05:00,
2016-02-13 04:10:00,29.0,25.9,30.21,ESE,107,2.0,10.0,88,0.00,,CLR,0.00,0.00,VWS V15.00,2016-02-13 11:10:00,
2016-02-13 04:15:00,29.1,26.0,30.21,East,95,4.0,6.0,88,0.00,,CLR,0.00,0.00,VWS V15.00,2016-02-13 11:15:00,
2016-02-13 04:25:00,29.3,26.2,30.20,ESE,107,3.0,3.0,88,0.00,,CLR,0.00,0.00,VWS V15.00,2016-02-13 11:25:00,
2016-02-13 04:30:00,29.3,26.2,30.20,East,92,6.0,7.0,88,0.00,,CLR,0.00,0.00,VWS V15.00,2016-02-13 11:30:00,
2016-02-13 04:35:00,29.4,26.3,30.20,East,93,2.0,7.0,88,0.00,,CLR,0.00,0.00,VWS V15.00,2016-02-13 11:35:00,
2016-02-13 04:40:00,29.5,26.4,30.19,East,100,5.0,7.0,88,0.00,,CLR,0.00,0.00,VWS V15.00,2016-02-13 11:40:00,
2016-02-13 04:45:00,29.5,26.4,30.19,ESE,111,6.0,6.0,88,0.00,,CLR,0.00,0.00,VWS V15.00,2016-02-13 11:45:00,
2016-02-13 04:50:00,29.4,26.3,30.19,ESE,112,3.0,6.0,88,0.00,,CLR,0.00,0.00,VWS V15.00,2016-02-13 11:50:00,
2016-02-13 04:55:00,29.5,26.4,30.19,ESE,103,0.0,5.0,88,0.00,,CLR,0.00,0.00,VWS V15.00,2016-02-13 11:55:00,
2016-02-13 04:56:00,29.5,26.4,30.19,ESE,104,5.0,5.0,88,0.00,,CLR,0.00,0.00,VWS V15.00,2016-02-13 11:56:00,
2016-02-13 05:00:00,29.6,26.5,30.19,ESE,119,1.0,6.0,88,0.00,,CLR,0.00,0.00,VWS V15.00,2016-02-13 12:00:00,
2016-02-13 05:05:00,29.6,26.5,30.19,ESE,112,1.0,5.0,88,0.00,,CLR,0.00,0.00,VWS V15.00,2016-02-13 12:05:00,
2016-02-13 05:06:00,29.6,26.5,30.19,ESE,111,4.0,5.0,88,0.00,,CLR,0.00,0.00,VWS V15.00,2016-02-13 12:06:00,
2016-02-13 05:10:00,29.7,26.6,30.19,ESE,114,5.0,5.0,88,0.00,,CLR,0.00,0.00,VWS V15.00,2016-02-13 12:10:00,
2016-02-13 05:11:00,29.7,26.6,30.19,ESE,117,0.0,4.0,88,0.00,,CLR,0.00,0.00,VWS V15.00,2016-02-13 12:11:00,
2016-02-13 05:15:00,29.8,26.7,30.19,East,98,2.0,6.0,88,0.00,,CLR,0.00,0.00,VWS V15.00,2016-02-13 12:15:00,
2016-02-13 05:16:00,29.8,26.7,30.19,East,98,2.0,6.0,88,0.00,,CLR,0.00,0.00,VWS V15.00,2016-02-13 12:16:00,
2016-02-13 05:25:00,29.9,26.8,30.19,East,88,5.0,6.0,88,0.00,,CLR,0.00,0.00,VWS V15.00,2016-02-13 12:25:00,
2016-02-13 05:26:00,29.9,26.8,30.19,East,98,2.0,2.0,88,0.00,,CLR,0.00,0.00,VWS V15.00,2016-02-13 12:26:00,
2016-02-13 05:30:00,30.0,26.9,30.18,East,90,1.0,5.0,88,0.00,,CLR,0.00,0.00,VWS V15.00,2016-02-13 12:30:00,
2016-02-13 05:35:00,30.1,27.0,30.18,East,91,2.0,3.0,88,0.00,,CLR,0.00,0.00,VWS V15.00,2016-02-13 12:35:00,
2016-02-13 05:36:00,30.1,27.0,30.18,East,91,1.0,3.0,88,0.00,,CLR,0.00,0.00,VWS V15.00,2016-02-13 12:36:00,
2016-02-13 05:40:00,30.2,27.1,30.18,ESE,123,3.0,7.0,88,0.00,,CLR,0.00,0.00,VWS V15.00,2016-02-13 12:40:00,
2016-02-13 05:41:00,30.2,27.1,30.18,East,84,1.0,7.0,88,0.00,,CLR,0.00,0.00,VWS V15.00,2016-02-13 12:41:00,
2016-02-13 05:45:00,30.3,27.5,30.17,ESE,120,5.0,6.0,89,0.00,,CLR,0.00,0.00,VWS V15.00,2016-02-13 12:45:00,
2016-02-13 05:46:00,30.3,27.2,30.18,ESE,111,3.0,5.0,88,0.00,,CLR,0.00,0.00,VWS V15.00,2016-02-13 12:46:00,
2016-02-13 05:55:00,30.5,27.6,30.16,SE,132,2.0,6.0,89,0.00,,CLR,0.00,0.00,VWS V15.00,2016-02-13 12:55:00,
2016-02-13 05:56:00,30.5,27.6,30.16,ESE,112,4.0,4.0,89,0.00,,CLR,0.00,0.00,VWS V15.00,2016-02-13 12:56:00,
2016-02-13 06:00:00,30.6,27.8,30.16,ESE,109,5.0,7.0,89,0.00,,CLR,0.00,0.00,VWS V15.00,2016-02-13 13:00:00,
2016-02-13 06:01:00,30.6,27.8,30.16,East,96,2.0,7.0,89,0.00,,CLR,0.00,0.00,VWS V15.00,2016-02-13 13:01:00,
2016-02-13 06:05:00,30.6,27.8,30.16,East,101,1.0,9.0,89,0.00,,CLR,0.00,0.00,VWS V15.00,2016-02-13 13:05:00,
2016-02-13 06:06:00,30.6,27.8,30.16,ESE,106,6.0,9.0,89,0.00,,CLR,0.00,0.00,VWS V15.00,2016-02-13 13:06:00,
2016-02-13 06:10:00,30.7,27.9,30.16,East,83,4.0,5.0,89,0.00,,CLR,0.00,0.00,VWS V15.00,2016-02-13 13:10:00,
2016-02-13 06:11:00,30.7,27.9,30.16,East,94,4.0,5.0,89,0.00,,CLR,0.00,0.00,VWS V15.00,2016-02-13 13:11:00,
2016-02-13 06:15:00,30.7,27.9,30.15,ENE,71,4.0,6.0,89,0.00,,CLR,0.00,0.00,VWS V15.00,2016-02-13 13:15:00,
2016-02-13 06:16:00,30.7,27.9,30.15,East,81,3.0,6.0,89,0.00,,CLR,0.00,0.00,VWS V15.00,2016-02-13 13:16:00,
2016-02-13 06:25:00,30.9,28.0,30.16,East,98,3.0,3.0,89,0.00,,CLR,0.00,0.00,VWS V15.00,2016-02-13 13:25:00,
2016-02-13 06:30:00,30.9,28.0,30.16,ESE,109,2.0,7.0,89,0.00,,CLR,0.00,0.00,VWS V15.00,2016-02-13 13:30:00,
2016-02-13 06:35:00,31.0,28.1,30.15,SE,124,0.0,6.0,89,0.00,,CLR,0.00,0.00,VWS V15.00,2016-02-13 13:35:00,
2016-02-13 06:40:00,31.1,28.2,30.15,ESE,121,0.0,4.0,89,0.00,,CLR,0.00,0.00,VWS V15.00,2016-02-13 13:40:00,
2016-02-13 06:45:00,31.3,28.4,30.14,ESE,123,4.0,5.0,89,0.00,,CLR,0.00,0.00,VWS V15.00,2016-02-13 13:45:00,
2016-02-13 06:50:00,31.4,28.5,30.14,SE,126,0.0,3.0,89,0.00,,CLR,0.00,0.00,VWS V15.00,2016-02-13 13:50:00,
2016-02-13 06:55:00,31.6,28.7,30.14,SE,133,3.0,3.0,89,0.00,,CLR,0.00,0.00,VWS V15.00,2016-02-13 13:55:00,
2016-02-13 07:00:00,31.6,28.7,30.14,SSE,168,1.0,6.0,89,0.00,,CLR,0.00,0.00,VWS V15.00,2016-02-13 14:00:00,
2016-02-13 07:05:00,31.7,28.8,30.13,SSE,152,1.0,6.0,89,0.00,,CLR,0.00,5.00,VWS V15.00,2016-02-13 14:05:00,
2016-02-13 07:10:00,31.9,29.0,30.13,South,180,5.0,9.0,89,0.00,,CLR,0.00,7.00,VWS V15.00,2016-02-13 14:10:00,
2016-02-13 07:15:00,32.0,29.1,30.12,South,175,3.0,15.0,89,0.00,,CLR,0.00,11.00,VWS V15.00,2016-02-13 14:15:00,
2016-02-13 07:20:00,32.1,29.2,30.12,SSE,167,4.0,13.0,89,0.00,,CLR,0.00,16.00,VWS V15.00,2016-02-13 14:20:00,
2016-02-13 07:25:00,32.2,29.3,30.12,SSW,200,2.0,2.0,89,0.00,,CLR,0.00,19.00,VWS V15.00,2016-02-13 14:25:00,
2016-02-13 07:30:00,32.2,29.3,30.12,SE,139,2.0,12.0,89,0.00,,CLR,0.00,25.00,VWS V15.00,2016-02-13 14:30:00,
2016-02-13 07:35:00,32.2,29.3,30.11,SSW,194,9.0,13.0,89,0.00,,CLR,0.00,32.00,VWS V15.00,2016-02-13 14:35:00,
2016-02-13 07:40:00,32.3,29.4,30.11,SSE,160,5.0,10.0,89,0.00,,CLR,0.00,35.00,VWS V15.00,2016-02-13 14:40:00,
2016-02-13 07:45:00,32.3,29.4,30.11,SSE,163,12.0,13.0,89,0.00,,CLR,0.00,39.00,VWS V15.00,2016-02-13 14:45:00,
2016-02-13 07:50:00,32.4,29.5,30.10,South,178,6.0,17.0,89,0.00,,CLR,0.00,44.00,VWS V15.00,2016-02-13 14:50:00,
2016-02-13 07:55:00,32.4,29.5,30.10,South,184,10.0,14.0,89,0.00,,CLR,0.00,46.00,VWS V15.00,2016-02-13 14:55:00,
2016-02-13 07:56:00,32.4,29.5,30.10,SSE,164,12.0,12.0,89,0.00,,CLR,0.00,44.00,VWS V15.00,2016-02-13 14:56:00,
2016-02-13 08:00:00,32.4,29.5,30.10,South,175,7.0,13.0,89,0.00,,CLR,0.00,51.00,VWS V15.00,2016-02-13 15:00:00,
2016-02-13 08:01:00,32.4,29.5,30.10,SSE,164,6.0,13.0,89,0.00,,CLR,0.00,49.00,VWS V15.00,2016-02-13 15:01:00,
2016-02-13 08:05:00,32.5,29.6,30.09,South,173,12.0,17.0,89,0.00,,CLR,0.00,53.00,VWS V15.00,2016-02-13 15:05:00,
2016-02-13 08:06:00,32.5,29.6,30.09,SSE,155,7.0,15.0,89,0.00,,CLR,0.00,53.00,VWS V15.00,2016-02-13 15:06:00,
2016-02-13 08:10:00,32.6,29.7,30.09,SSE,163,10.0,14.0,89,0.00,,CLR,0.00,56.00,VWS V15.00,2016-02-13 15:10:00,
2016-02-13 08:11:00,32.6,29.7,30.09,South,190,13.0,14.0,89,0.00,,CLR,0.00,54.00,VWS V15.00,2016-02-13 15:11:00,
2016-02-13 08:15:00,32.6,29.7,30.09,South,191,9.0,15.0,89,0.00,,CLR,0.00,62.00,VWS V15.00,2016-02-13 15:15:00,
2016-02-13 08:16:00,32.6,29.7,30.09,SSW,199,15.0,15.0,89,0.00,,CLR,0.00,58.00,VWS V15.00,2016-02-13 15:16:00,
2016-02-13 08:25:00,32.8,29.9,30.09,South,188,7.0,7.0,89,0.00,,CLR,0.00,74.00,VWS V15.00,2016-02-13 15:25:00,
2016-02-13 08:30:00,32.9,30.0,30.08,South,171,5.0,19.0,89,0.00,,CLR,0.00,69.00,VWS V15.00,2016-02-13 15:30:00,
2016-02-13 08:35:00,33.0,30.1,30.08,South,169,16.0,16.0,89,0.00,,CLR,0.00,63.00,VWS V15.00,2016-02-13 15:35:00,
2016-02-13 08:40:00,33.3,30.4,30.07,SSW,194,12.0,21.0,89,0.00,,CLR,0.00,65.00,VWS V15.00,2016-02-13 15:40:00,
2016-02-13 08:45:00,33.3,30.4,30.07,South,171,2.0,16.0,89,0.00,,CLR,0.00,67.00,VWS V15.00,2016-02-13 15:45:00,
2016-02-13 08:50:00,33.5,30.3,30.06,SSW,192,17.0,25.0,88,0.00,,CLR,0.00,69.00,VWS V15.00,2016-02-13 15:50:00,
2016-02-13 08:55:00,33.6,30.4,30.06,South,186,14.0,14.0,88,0.00,,CLR,0.00,70.00,VWS V15.00,2016-02-13 15:55:00,
2016-02-13 09:00:00,33.8,30.6,30.06,South,188,12.0,14.0,88,0.00,,CLR,0.00,74.00,VWS V15.00,2016-02-13 16:00:00,
2016-02-13 09:05:00,33.9,30.7,30.06,SSW,202,9.0,20.0,88,0.00,,CLR,0.00,77.00,VWS V15.00,2016-02-13 16:05:00,
2016-02-13 09:10:00,34.1,30.9,30.05,SSE,160,9.0,14.0,88,0.00,,CLR,0.00,84.00,VWS V15.00,2016-02-13 16:10:00,
2016-02-13 09:15:00,34.2,31.0,30.05,SSW,195,7.0,12.0,88,0.00,,CLR,0.00,90.00,VWS V15.00,2016-02-13 16:15:00,
2016-02-13 09:25:00,34.5,31.0,30.05,SSE,148,3.0,3.0,87,0.00,,CLR,0.00,127.00,VWS V15.00,2016-02-13 16:25:00,
2016-02-13 09:27:00,34.4,30.9,30.05,WNW,288,1.0,1.0,87,0.00,,CLR,0.00,125.00,VWS V15.00,2016-02-13 16:27:00,
2016-02-13 09:30:00,34.7,31.2,30.05,SE,129,3.0,13.0,87,0.00,,CLR,0.00,135.00,VWS V15.00,2016-02-13 16:30:00,
2016-02-13 09:32:00,34.7,31.2,30.05,SSW,211,3.0,13.0,87,0.00,,CLR,0.00,134.00,VWS V15.00,2016-02-13 16:32:00,
2016-02-13 09:35:00,34.8,31.3,30.05,SE,132,0.0,10.0,87,0.00,,CLR,0.00,142.00,VWS V15.00,2016-02-13 16:35:00,
2016-02-13 09:37:00,34.8,31.3,30.05,SE,133,3.0,10.0,87,0.00,,CLR,0.00,142.00,VWS V15.00,2016-02-13 16:37:00,
2016-02-13 09:40:00,35.1,31.6,30.04,WNW,302,1.0,10.0,87,0.00,,CLR,0.00,160.00,VWS V15.00,2016-02-13 16:40:00,
2016-02-13 09:42:00,35.0,31.5,30.04,NE,42,8.0,10.0,87,0.00,,CLR,0.00,156.00,VWS V15.00,2016-02-13 16:42:00,
2016-02-13 09:45:00,35.3,31.5,30.04,WNW,286,0.0,9.0,86,0.00,,CLR,0.00,176.00,VWS V15.00,2016-02-13 16:45:00,
2016-02-13 09:47:00,35.3,31.5,30.04,WNW,295,7.0,9.0,86,0.00,,CLR,0.00,176.00,VWS V15.00,2016-02-13 16:47:00,
2016-02-13 09:55:00,35.8,32.0,30.04,North,11,4.0,6.0,86,0.00,,CLR,0.00,167.00,VWS V15.00,2016-02-13 16:55:00,
2016-02-13 09:56:00,35.7,31.9,30.04,NNE,18,5.0,5.0,86,0.00,,CLR,0.00,169.00,VWS V15.00,2016-02-13 16:56:00,
2016-02-13 10:00:00,36.0,32.2,30.04,NW,323,0.0,5.0,86,0.00,,CLR,0.00,172.00,VWS V15.00,2016-02-13 17:00:00,
2016-02-13 10:01:00,36.0,32.2,30.04,NW,321,1.0,5.0,86,0.00,,CLR,0.00,169.00,VWS V15.00,2016-02-13 17:01:00,
2016-02-13 10:05:00,36.2,32.1,30.03,ENE,70,0.0,4.0,85,0.00,,CLR,0.00,181.00,VWS V15.00,2016-02-13 17:05:00,
2016-02-13 10:06:00,36.2,32.1,30.03,ENE,78,4.0,4.0,85,0.00,,CLR,0.00,176.00,VWS V15.00,2016-02-13 17:06:00,
2016-02-13 10:10:00,36.3,32.2,30.03,SW,218,4.0,5.0,85,0.00,,CLR,0.00,183.00,VWS V15.00,2016-02-13 17:10:00,
2016-02-13 10:11:00,36.3,32.2,30.03,ESE,107,0.0,5.0,85,0.00,,CLR,0.00,181.00,VWS V15.00,2016-02-13 17:11:00,
2016-02-13 10:15:00,36.4,32.0,30.03,SSW,213,0.0,4.0,84,0.00,,CLR,0.00,186.00,VWS V15.00,2016-02-13 17:15:00,
2016-02-13 10:16:00,36.3,31.9,30.03,SSW,213,0.0,4.0,84,0.00,,CLR,0.00,186.00,VWS V15.00,2016-02-13 17:16:00,
2016-02-13 10:25:00,37.0,32.6,30.02,East,101,4.0,4.0,84,0.00,,CLR,0.00,148.00,VWS V15.00,2016-02-13 17:25:00,
2016-02-13 10:26:00,36.9,32.5,30.01,ESE,111,2.0,2.0,84,0.00,,CLR,0.00,146.00,VWS V15.00,2016-02-13 17:26:00,
2016-02-13 10:30:00,37.3,32.6,30.01,ESE,114,3.0,5.0,83,0.00,,CLR,0.00,163.00,VWS V15.00,2016-02-13 17:30:00,
2016-02-13 10:31:00,37.2,32.5,30.01,East,96,1.0,5.0,83,0.00,,CLR,0.00,160.00,VWS V15.00,2016-02-13 17:31:00,
2016-02-13 10:35:00,37.4,32.7,30.01,East,89,0.0,3.0,83,0.00,,CLR,0.00,213.00,VWS V15.00,2016-02-13 17:35:00,
2016-02-13 10:36:00,37.4,32.7,30.01,East,89,0.0,3.0,83,0.00,,CLR,0.00,200.00,VWS V15.00,2016-02-13 17:36:00,
2016-02-13 10:41:00,37.6,32.9,30.00,ESE,123,0.0,5.0,83,0.00,,CLR,0.00,229.00,VWS V15.00,2016-02-13 17:41:00,
2016-02-13 10:45:00,38.2,33.2,30.00,ESE,108,0.0,4.0,82,0.00,,CLR,0.00,276.00,VWS V15.00,2016-02-13 17:45:00,
2016-02-13 10:46:00,38.1,33.1,30.00,East,98,1.0,4.0,82,0.00,,CLR,0.00,274.00,VWS V15.00,2016-02-13 17:46:00,
2016-02-13 10:56:00,39.1,33.8,30.00,South,183,7.0,7.0,81,0.00,,CLR,0.00,258.00,VWS V15.00,2016-02-13 17:56:00,
2016-02-13 11:01:00,39.6,34.0,30.00,SSW,197,2.0,3.0,80,0.00,,CLR,0.00,287.00,VWS V15.00,2016-02-13 18:01:00,